Bookmark and Share
Track history (hours):
 

Atalanti

Last reported at 2014-Apr-17 15:28 UTC. Time now 2014-Apr-18 08:04 UTC.
Position N 40°27' E 013°31'.

Length 97 m; draft 4 m.

Type: Other ship. MMSI: 212279000.

NotesDate/timePositionNaut miles runAvg speedWind from/ knotsBaromVisibWave heightAir tempDewpointWater temp
2014-Apr-17 15:28N 40°27' E 013°31'7 7.5
2014-Apr-17 14:33N 40°30' E 013°39'8 7.6
2014-Apr-17 13:33N 40°34' E 013°48'7 7.5
2014-Apr-17 12:33N 40°37' E 013°57'7 7.1
2014-Apr-17 11:33N 40°41' E 014°04'7 6.7
2014-Apr-17 10:33N 40°47' E 014°08'2 2.0
2014-Apr-17 09:31N 40°49' E 014°06'0 0.4
2014-Apr-17 08:31N 40°50' E 014°06'0 0.0
2014-Apr-17 07:31N 40°50' E 014°06'0 0.0
2014-Apr-17 06:22N 40°50' E 014°06'0 0.0
2014-Apr-17 05:28N 40°50' E 014°06'0 0.0
2014-Apr-17 04:31N 40°50' E 014°06'0 0.0
2014-Apr-17 03:28N 40°50' E 014°06'0 0.0
2014-Apr-17 02:28N 40°50' E 014°06'0 0.0
2014-Apr-17 01:28N 40°50' E 014°06'0 0.0
2014-Apr-17 00:31N 40°50' E 014°06'0 0.0
2014-Apr-16 23:31N 40°50' E 014°06'0 0.0
2014-Apr-16 22:31N 40°50' E 014°06'0 0.0
2014-Apr-16 21:31N 40°50' E 014°06'0 0.0
2014-Apr-16 20:28N 40°50' E 014°06'0 0.0
2014-Apr-16 19:28N 40°50' E 014°06'0 0.0
2014-Apr-16 18:25N 40°50' E 014°06'0 0.0
2014-Apr-16 17:31N 40°50' E 014°06'0 0.0
2014-Apr-16 16:28N 40°50' E 014°06'0 0.0
2014-Apr-16 15:31N 40°50' E 014°06'0 0.0
2014-Apr-16 14:31N 40°50' E 014°06'0 0.0
2014-Apr-16 13:22N 40°50' E 014°06'0 0.0
2014-Apr-16 12:22N 40°50' E 014°06'0 0.0
2014-Apr-16 11:13N 40°50' E 014°06'0 0.0
2014-Apr-16 10:31N 40°50' E 014°06'0 0.0
2014-Apr-16 09:31N 40°50' E 014°06'0 0.0
2014-Apr-16 08:19N 40°50' E 014°06'0 0.0
2014-Apr-16 07:31N 40°50' E 014°06'0 0.0
2014-Apr-16 06:31N 40°50' E 014°06'0 0.0
2014-Apr-16 05:31N 40°50' E 014°06'0 0.0
2014-Apr-16 04:31N 40°50' E 014°06'0 0.0
2014-Apr-16 03:25N 40°50' E 014°06'0 0.0
2014-Apr-16 02:31N 40°50' E 014°06'0 0.0
2014-Apr-16 01:28N 40°50' E 014°06'0 0.0
2014-Apr-16 00:28N 40°50' E 014°06'0 0.0
2014-Apr-15 23:31N 40°50' E 014°06'0 0.0
2014-Apr-15 22:28N 40°50' E 014°06'0 0.0
2014-Apr-15 21:31N 40°50' E 014°06'0 0.0
2014-Apr-15 20:31N 40°50' E 014°06'0 0.0
2014-Apr-15 19:22N 40°50' E 014°06'0 0.0
2014-Apr-15 18:19N 40°50' E 014°06'0 0.0
2014-Apr-15 17:16N 40°50' E 014°06'0 0.0
2014-Apr-15 16:31N 40°50' E 014°06'0 0.0
2014-Apr-15 15:22N 40°50' E 014°06'0 0.0
2014-Apr-15 14:28N 40°50' E 014°06'0 0.0
2014-Apr-15 12:32N 40°50' E 014°06'0 0.0
2014-Apr-15 11:32N 40°50' E 014°06'0 0.0
2014-Apr-15 10:32N 40°50' E 014°06'0 0.0
2014-Apr-15 08:32N 40°50' E 014°06'0 0.0
2014-Apr-15 07:32N 40°50' E 014°06'0 0.0
2014-Apr-15 06:32N 40°50' E 014°06'0 0.0
2014-Apr-15 05:32N 40°50' E 014°06'0 0.0
2014-Apr-15 03:32N 40°50' E 014°06'0 0.0
2014-Apr-15 02:32N 40°50' E 014°06'0 0.0
2014-Apr-15 01:32N 40°50' E 014°06'0 0.0
2014-Apr-14 22:32N 40°50' E 014°06'0 0.0
2014-Apr-14 20:32N 40°50' E 014°06'0 0.0
2014-Apr-14 19:31N 40°50' E 014°06'0 0.0
2014-Apr-14 18:31N 40°50' E 014°06'0 0.0
2014-Apr-14 16:31N 40°50' E 014°06'0 0.0
2014-Apr-14 15:31N 40°50' E 014°06'0 0.0
2014-Apr-14 14:31N 40°50' E 014°06'0 0.0
2014-Apr-14 11:31N 40°50' E 014°06'0 0.0
2014-Apr-14 05:31N 40°50' E 014°06'0 0.0
2014-Apr-13 22:31N 40°50' E 014°06'0 0.0
2014-Apr-13 21:31N 40°50' E 014°06'0 0.0
2014-Apr-13 20:31N 40°50' E 014°06'0 0.0
2014-Apr-13 19:31N 40°50' E 014°06'0 0.0
2014-Apr-13 18:22N 40°50' E 014°06'0 0.0
2014-Apr-13 17:31N 40°50' E 014°06'0 0.0
2014-Apr-13 16:31N 40°50' E 014°06'0 0.0
2014-Apr-13 15:31N 40°50' E 014°06'0 0.0
2014-Apr-13 14:31N 40°50' E 014°06'0 0.0
2014-Apr-13 13:19N 40°50' E 014°06'0 0.0
2014-Apr-13 12:31N 40°50' E 014°06'0 0.0
2014-Apr-13 11:31N 40°50' E 014°06'0 0.0
2014-Apr-13 10:28N 40°50' E 014°06'0 0.0
2014-Apr-13 09:22N 40°50' E 014°06'0 0.0
2014-Apr-13 08:19N 40°50' E 014°06'0 0.0
2014-Apr-13 07:28N 40°50' E 014°06'0 0.0
2014-Apr-13 06:31N 40°50' E 014°06'0 0.0
2014-Apr-13 05:31N 40°50' E 014°06'0 0.0
2014-Apr-13 04:31N 40°50' E 014°06'0 0.0
2014-Apr-13 03:28N 40°50' E 014°06'0 0.0
2014-Apr-13 02:28N 40°50' E 014°06'0 0.0
2014-Apr-13 01:31N 40°50' E 014°06'0 0.0
2014-Apr-13 00:31N 40°50' E 014°06'0 0.0
2014-Apr-12 23:31N 40°50' E 014°06'0 0.0
2014-Apr-12 22:31N 40°50' E 014°06'0 0.0
2014-Apr-12 21:31N 40°50' E 014°06'0 0.0
2014-Apr-12 20:31N 40°50' E 014°06'0 0.0
2014-Apr-12 19:31N 40°50' E 014°06'0 0.0
2014-Apr-12 18:28N 40°50' E 014°06'0 0.0
2014-Apr-12 17:28N 40°50' E 014°06'0 0.0
2014-Apr-12 16:28N 40°50' E 014°06'0 0.0
2014-Apr-12 15:31N 40°50' E 014°06'0 0.0
2014-Apr-12 14:31N 40°50' E 014°06'0 0.0
2014-Apr-12 13:28N 40°50' E 014°06'0 0.0
2014-Apr-12 12:31N 40°50' E 014°06'0 0.0
2014-Apr-12 11:31N 40°50' E 014°06'0 0.0
2014-Apr-12 10:28N 40°50' E 014°06'0 0.0
2014-Apr-12 09:28N 40°50' E 014°06'0 0.0
2014-Apr-12 08:31N 40°50' E 014°06'0 0.0
2014-Apr-12 07:28N 40°50' E 014°06'0 0.0
2014-Apr-12 06:31N 40°50' E 014°06'0 0.0
2014-Apr-12 05:31N 40°50' E 014°06'0 0.0
2014-Apr-12 04:31N 40°50' E 014°06'0 0.0
2014-Apr-12 03:25N 40°50' E 014°06'0 0.0
2014-Apr-12 02:31N 40°50' E 014°06'0 0.0
2014-Apr-12 01:31N 40°50' E 014°06'0 0.0
2014-Apr-12 00:28N 40°50' E 014°06'0 0.0
2014-Apr-11 23:31N 40°50' E 014°06'0 0.0
2014-Apr-11 22:31N 40°50' E 014°06'0 0.0
2014-Apr-11 21:31N 40°50' E 014°06'0 0.0
2014-Apr-11 20:31N 40°50' E 014°06'0 0.0
2014-Apr-11 19:19N 40°50' E 014°06'0 0.0
2014-Apr-11 18:22N 40°50' E 014°06'0 0.0
2014-Apr-11 17:31N 40°50' E 014°06'0 0.0
2014-Apr-11 16:31N 40°50' E 014°06'0 0.0
2014-Apr-11 15:13N 40°50' E 014°06'0 0.0
2014-Apr-11 14:25N 40°50' E 014°06'0 0.0
2014-Apr-11 13:31N 40°50' E 014°06'0 0.0
2014-Apr-11 12:28N 40°50' E 014°06'0 0.0
2014-Apr-11 11:31N 40°50' E 014°06'0 0.0
2014-Apr-11 10:28N 40°50' E 014°06'0 0.0
2014-Apr-11 09:31N 40°50' E 014°06'0 0.0
2014-Apr-11 08:31N 40°50' E 014°06'0 0.0
2014-Apr-11 07:28N 40°50' E 014°06'0 0.0
2014-Apr-11 06:31N 40°50' E 014°06'0 0.0
2014-Apr-11 05:31N 40°50' E 014°06'0 0.0
2014-Apr-11 04:31N 40°50' E 014°06'0 0.0
2014-Apr-11 03:31N 40°50' E 014°06'0 0.0
2014-Apr-11 02:28N 40°50' E 014°06'0 0.0
2014-Apr-11 01:28N 40°50' E 014°06'0 0.0
2014-Apr-11 00:31N 40°50' E 014°06'0 0.0
2014-Apr-10 23:31N 40°50' E 014°06'0 0.0
2014-Apr-10 22:31N 40°50' E 014°06'0 0.0
2014-Apr-10 21:31N 40°50' E 014°06'0 0.0
2014-Apr-10 20:31N 40°50' E 014°06'0 0.0
2014-Apr-10 19:31N 40°50' E 014°06'0 0.0
2014-Apr-10 18:25N 40°50' E 014°06'0 0.0
2014-Apr-10 17:28N 40°50' E 014°06'0 0.0
2014-Apr-10 16:31N 40°50' E 014°06'0 0.0
2014-Apr-10 15:28N 40°50' E 014°06'0 0.0
2014-Apr-10 14:28N 40°50' E 014°06'0 0.0
2014-Apr-10 13:28N 40°50' E 014°06'0 0.0
2014-Apr-10 12:31N 40°50' E 014°06'0 0.0
2014-Apr-10 11:28N 40°50' E 014°06'0 0.0
2014-Apr-10 10:31N 40°50' E 014°06'0 0.0
2014-Apr-10 09:33N 40°50' E 014°06'0 0.0
2014-Apr-10 08:33N 40°50' E 014°06'0 0.2
2014-Apr-10 07:34N 40°49' E 014°06'1 0.1
2014-Apr-09 21:33N 40°49' E 014°07'0 0.0
2014-Apr-09 20:33N 40°49' E 014°07'0 0.0
2014-Apr-09 19:33N 40°49' E 014°07'0 0.0
2014-Apr-09 18:33N 40°49' E 014°07'0 0.0
2014-Apr-09 17:33N 40°49' E 014°07'0 0.0
2014-Apr-09 16:33N 40°49' E 014°07'0 0.0
2014-Apr-09 15:30N 40°49' E 014°07'0 0.0
2014-Apr-09 14:33N 40°49' E 014°07'0 0.0
2014-Apr-09 13:33N 40°49' E 014°07'0 0.0
2014-Apr-09 12:33N 40°49' E 014°07'0 0.0
2014-Apr-09 11:30N 40°49' E 014°07'0 0.0
2014-Apr-09 10:33N 40°49' E 014°07'0 0.0
2014-Apr-09 09:33N 40°49' E 014°07'0 0.0
2014-Apr-09 08:33N 40°49' E 014°07'0 0.0
2014-Apr-09 07:33N 40°49' E 014°07'1 0.5
2014-Apr-09 06:33N 40°49' E 014°06'3 3.2
2014-Apr-09 05:33N 40°46' E 014°08'8 7.6
2014-Apr-09 04:33N 40°39' E 014°07'8 7.9
2014-Apr-09 03:33N 40°31' E 014°07'8 7.9
2014-Apr-09 02:33N 40°24' E 014°12'44 7.3
2014-Apr-08 20:31N 39°45' E 014°40'101 7.2
2014-Apr-08 06:26N 38°14' E 015°38'  

Dump ship's entire track history

sailing weather and tide predictions

Atalanti — 5BYY2 — position and weather